Time;durP1;ratioP1;P1;durP2;ratioP2;P2;SDS_P1;SDS_P2;PMS_P1;PMS_P2;Temp;Humidity;BMP_temperature;BMP_pressure;BME280_temperature;BME280_humidity;BME280_pressure;Samples;Min_cycle;Max_cycle;Signal;HPM_P1;HPM_P2
2021/06/06 00:01:37;;;;;;;0.55;0.55;;;20.90;85.30;;;;;;4400800;32;20112;-61
2021/06/06 00:04:03;;;;;;;0.55;0.45;;;20.90;84.70;;;;;;4389563;32;20065;-58
2021/06/06 00:06:31;;;;;;;0.88;0.70;;;20.90;84.30;;;;;;4430298;32;20117;-61
2021/06/06 00:09:00;;;;;;;5.85;1.20;;;20.90;83.80;;;;;;4406074;32;20484;-61
2021/06/06 00:11:28;;;;;;;0.45;0.45;;;20.90;84.20;;;;;;4408215;32;20112;-61
2021/06/06 00:13:56;;;;;;;0.30;0.30;;;20.90;84.50;;;;;;4401025;32;20399;-60
2021/06/06 00:16:27;;;;;;;0.85;0.65;;;20.80;84.80;;;;;;4394001;32;20074;-61
2021/06/06 00:18:52;;;;;;;0.50;0.50;;;20.80;84.60;;;;;;4419018;32;20360;-60
2021/06/06 00:21:20;;;;;;;2.62;0.73;;;20.70;85.40;;;;;;4408084;32;20116;-60
2021/06/06 00:23:45;;;;;;;2.00;0.57;;;20.70;85.30;;;;;;4393816;32;20133;-61
2021/06/06 00:26:11;;;;;;;2.50;0.43;;;20.70;85.70;;;;;;4413694;32;20557;-62
2021/06/06 00:28:37;;;;;;;2.25;0.98;;;20.60;85.80;;;;;;4429425;32;20069;-62
2021/06/06 00:31:05;;;;;;;10.80;0.77;;;20.60;86.10;;;;;;4408787;32;20070;-61
2021/06/06 00:33:31;;;;;;;0.95;0.70;;;20.50;86.80;;;;;;4414917;32;20116;-61
2021/06/06 00:35:57;;;;;;;0.65;0.50;;;20.50;86.50;;;;;;4427544;32;20078;-61
2021/06/06 00:38:23;;;;;;;0.65;0.60;;;20.40;86.50;;;;;;4419081;32;20141;-61
2021/06/06 00:40:49;;;;;;;44.08;1.80;;;20.40;87.10;;;;;;4405446;32;20074;-62
2021/06/06 00:43:14;;;;;;;1.65;0.60;;;20.40;87.50;;;;;;4411250;32;20128;-61
2021/06/06 00:45:40;;;;;;;0.60;0.47;;;20.50;87.00;;;;;;4426471;32;20061;-59
2021/06/06 00:48:07;;;;;;;0.40;0.40;;;20.40;87.10;;;;;;4427027;32;20333;-61
2021/06/06 00:50:38;;;;;;;0.68;0.68;;;20.40;87.70;;;;;;4429214;32;20061;-62
2021/06/06 00:53:05;;;;;;;;;;;20.30;87.30;;;;;;4415468;32;20066;-58
2021/06/06 00:55:33;;;;;;;1.60;1.15;;;20.20;87.60;;;;;;4413772;32;19955;-61
2021/06/06 00:58:02;;;;;;;1.00;0.75;;;20.20;88.50;;;;;;4429782;32;20061;-59
2021/06/06 01:00:37;;;;;;;0.95;0.70;;;20.20;88.70;;;;;;4429475;32;20046;-61
2021/06/06 01:03:03;;;;;;;1.55;0.77;;;20.10;88.70;;;;;;4428940;32;20569;-61
2021/06/06 01:05:37;;;;;;;0.90;0.40;;;20.10;89.50;;;;;;4411417;32;20123;-61
2021/06/06 01:08:06;;;;;;;1.12;0.70;;;20.10;89.50;;;;;;4393256;32;20093;-60
2021/06/06 01:10:31;;;;;;;0.65;0.45;;;19.90;90.00;;;;;;4407310;32;20042;-61
2021/06/06 01:13:07;;;;;;;8.57;1.75;;;19.90;90.20;;;;;;4411486;32;20086;-61
2021/06/06 01:15:36;;;;;;;0.70;0.62;;;19.90;90.10;;;;;;4404093;32;20121;-59
2021/06/06 01:18:27;;;;;;;0.93;0.60;;;19.80;90.30;;;;;;4413504;32;20080;-58
2021/06/06 01:21:00;;;;;;;;;;;19.80;90.60;;;;;;4411200;32;20058;-60
2021/06/06 01:23:45;;;;;;;1.25;0.77;;;19.70;90.40;;;;;;4426232;32;19998;-61
2021/06/06 01:26:31;;;;;;;0.55;0.52;;;19.70;90.60;;;;;;4432791;32;20061;-61
2021/06/06 01:28:59;;;;;;;0.57;0.57;;;19.70;90.60;;;;;;4435449;32;20073;-61
2021/06/06 01:31:26;;;;;;;0.68;0.68;;;19.70;90.80;;;;;;4426915;32;20062;-62
2021/06/06 01:33:57;;;;;;;0.50;0.50;;;19.60;91.10;;;;;;4434012;32;20065;-59
2021/06/06 01:36:27;;;;;;;3.75;1.10;;;19.60;91.50;;;;;;4417308;32;20072;-61
2021/06/06 01:38:59;;;;;;;0.60;0.50;;;19.60;91.20;;;;;;4409719;32;20079;-61
2021/06/06 01:41:34;;;;;;;0.60;0.50;;;19.50;91.40;;;;;;4401353;32;20074;-59
2021/06/06 01:44:03;;;;;;;0.62;0.62;;;19.40;91.60;;;;;;4413843;32;20408;-59
2021/06/06 01:46:33;;;;;;;0.98;0.80;;;19.40;91.60;;;;;;4398943;32;20057;-58
2021/06/06 01:48:59;;;;;;;;;;;19.40;91.70;;;;;;4393948;32;20062;-61
2021/06/06 01:51:37;;;;;;;6.68;1.12;;;19.50;91.60;;;;;;4423121;32;19990;-59
2021/06/06 01:54:03;;;;;;;3.22;1.62;;;19.30;91.90;;;;;;4418346;32;20066;-57
2021/06/06 01:56:32;;;;;;;0.75;0.55;;;19.30;92.30;;;;;;4418123;32;20551;-60
2021/06/06 01:59:04;;;;;;;0.35;0.35;;;19.20;92.50;;;;;;4404620;32;20086;-61
2021/06/06 02:01:31;;;;;;;0.70;0.70;;;19.20;92.80;;;;;;4405533;32;20061;-60
2021/06/06 02:03:58;;;;;;;2.25;0.90;;;19.10;93.00;;;;;;4419178;32;20555;-60
2021/06/06 02:06:32;;;;;;;1.20;0.80;;;19.10;92.90;;;;;;4420551;32;20125;-61
2021/06/06 02:08:58;;;;;;;0.62;0.62;;;19.10;92.80;;;;;;4418430;32;20061;-59
2021/06/06 02:11:30;;;;;;;2.47;1.20;;;19.20;92.70;;;;;;4431998;32;20595;-61
2021/06/06 02:14:01;;;;;;;1.65;0.77;;;19.20;93.00;;;;;;4415836;32;20074;-61
2021/06/06 02:16:30;;;;;;;0.50;0.50;;;19.10;93.30;;;;;;4425299;32;20949;-61
2021/06/06 02:18:56;;;;;;;0.95;0.85;;;18.90;93.60;;;;;;4395282;32;20050;-59
2021/06/06 02:21:22;;;;;;;2.60;0.90;;;18.90;93.80;;;;;;4410285;32;20476;-60
2021/06/06 02:23:49;;;;;;;1.27;0.73;;;19.00;93.80;;;;;;4422554;32;20404;-59
2021/06/06 02:26:24;;;;;;;0.88;0.80;;;19.00;93.70;;;;;;4402967;32;20066;-57
2021/06/06 02:29:02;;;;;;;3.80;1.00;;;18.90;94.00;;;;;;4431091;32;20394;-60
2021/06/06 02:31:38;;;;;;;0.50;0.50;;;18.90;94.30;;;;;;4424454;32;20065;-57
2021/06/06 02:34:18;;;;;;;1.98;1.17;;;18.80;94.70;;;;;;4431521;32;20065;-59
2021/06/06 02:37:11;;;;;;;0.62;0.60;;;18.70;95.20;;;;;;4410940;32;20113;-57
2021/06/06 02:39:39;;;;;;;1.02;0.90;;;18.50;95.60;;;;;;4404060;32;20070;-60
2021/06/06 02:42:17;;;;;;;0.62;0.60;;;18.40;96.00;;;;;;4412597;32;20066;-62
2021/06/06 02:44:54;;;;;;;1.87;0.80;;;18.40;96.30;;;;;;4413618;32;20124;-59
2021/06/06 02:47:25;;;;;;;0.68;0.68;;;18.30;96.60;;;;;;4421013;32;20061;-60
2021/06/06 02:49:55;;;;;;;0.62;0.60;;;18.20;97.10;;;;;;4446776;32;20070;-60
2021/06/06 02:52:44;;;;;;;0.55;0.55;;;18.10;97.40;;;;;;4437864;32;20498;-60
2021/06/06 02:55:31;;;;;;;0.68;0.45;;;18.10;97.60;;;;;;4419679;32;20454;-58
2021/06/06 02:58:03;;;;;;;0.90;0.70;;;18.00;98.20;;;;;;4421204;32;20127;-60
2021/06/06 03:00:34;;;;;;;1.33;0.73;;;18.00;98.60;;;;;;4432948;32;20125;-59
2021/06/06 03:03:13;;;;;;;0.90;0.63;;;17.90;99.20;;;;;;4432897;32;20061;-61
2021/06/06 03:05:39;;;;;;;1.52;0.90;;;17.90;99.40;;;;;;4408993;32;20556;-60
2021/06/06 03:08:08;;;;;;;2.28;1.40;;;17.80;99.90;;;;;;4416091;32;20077;-60
2021/06/06 03:10:36;;;;;;;0.52;0.52;;;17.90;99.90;;;;;;4411903;32;20062;-60
2021/06/06 03:13:07;;;;;;;1.33;0.80;;;17.90;99.90;;;;;;4425807;32;20045;-59
2021/06/06 03:15:35;;;;;;;;;;;18.00;99.90;;;;;;4406703;32;20057;-58
2021/06/06 03:18:03;;;;;;;2.00;0.98;;;18.00;99.90;;;;;;4422503;32;19949;-57
2021/06/06 03:20:37;;;;;;;0.80;0.75;;;18.00;99.90;;;;;;4420881;32;20503;-61
2021/06/06 03:23:07;;;;;;;1.52;1.05;;;17.90;99.90;;;;;;4407363;32;20053;-56
2021/06/06 03:25:46;;;;;;;0.37;0.30;;;17.80;99.90;;;;;;4421682;32;20497;-60
2021/06/06 03:28:14;;;;;;;1.17;0.77;;;17.90;99.90;;;;;;4432608;32;20053;-60
2021/06/06 03:30:45;;;;;;;1.60;0.52;;;17.80;99.90;;;;;;4440339;32;20073;-60
2021/06/06 03:33:15;;;;;;;1.00;0.80;;;17.90;99.90;;;;;;4404377;32;20109;-58
2021/06/06 03:35:42;;;;;;;0.80;0.70;;;17.90;99.90;;;;;;4397523;32;20124;-60
2021/06/06 03:38:09;;;;;;;0.47;0.47;;;17.90;99.90;;;;;;4409159;32;20558;-61
2021/06/06 03:40:39;;;;;;;1.20;0.98;;;17.90;99.90;;;;;;4419057;32;20066;-61
2021/06/06 03:43:09;;;;;;;0.70;0.70;;;17.90;99.90;;;;;;4414144;32;20424;-61
2021/06/06 03:45:35;;;;;;;1.85;0.90;;;17.80;99.90;;;;;;4403515;32;20064;-61
2021/06/06 03:48:00;;;;;;;1.75;0.90;;;17.80;99.90;;;;;;4419703;32;20050;-57
2021/06/06 03:50:29;;;;;;;1.55;1.10;;;17.80;99.90;;;;;;4414626;32;20072;-61
2021/06/06 03:52:55;;;;;;;0.95;0.73;;;18.00;99.90;;;;;;4441640;32;20103;-61
2021/06/06 03:55:21;;;;;;;1.58;0.80;;;18.10;99.90;;;;;;4434491;32;20066;-61
2021/06/06 03:57:47;;;;;;;3.92;1.17;;;18.30;99.90;;;;;;4429984;32;20061;-61
2021/06/06 04:00:20;;;;;;;0.73;0.70;;;18.30;99.90;;;;;;4416117;32;20081;-59
2021/06/06 04:02:45;;;;;;;0.80;0.80;;;18.40;99.90;;;;;;4403132;32;20061;-61
2021/06/06 04:05:12;;;;;;;3.47;1.60;;;18.40;99.90;;;;;;4438314;32;20142;-61
2021/06/06 04:07:37;;;;;;;0.93;0.85;;;18.30;99.90;;;;;;4432867;32;20061;-60
2021/06/06 04:10:05;;;;;;;0.50;0.50;;;18.30;99.90;;;;;;4443736;32;20076;-61
2021/06/06 04:12:30;;;;;;;0.90;0.60;;;18.20;99.90;;;;;;4425357;32;20082;-58
2021/06/06 04:14:56;;;;;;;0.62;0.55;;;18.10;99.90;;;;;;4414903;32;20540;-60
2021/06/06 04:17:21;;;;;;;0.50;0.50;;;18.20;99.90;;;;;;4422611;32;20073;-60
2021/06/06 04:19:47;;;;;;;2.55;1.30;;;18.20;99.90;;;;;;4431714;32;20073;-59
2021/06/06 04:22:12;;;;;;;0.70;0.70;;;18.30;99.90;;;;;;4437235;32;20061;-58
2021/06/06 04:24:38;;;;;;;1.55;1.00;;;18.40;99.90;;;;;;4439852;32;20124;-60
2021/06/06 04:27:04;;;;;;;3.50;1.20;;;18.40;99.90;;;;;;4415123;32;20062;-60
2021/06/06 04:29:30;;;;;;;1.35;0.70;;;18.50;99.90;;;;;;4414396;32;20669;-60
2021/06/06 04:31:55;;;;;;;2.65;0.88;;;18.50;99.90;;;;;;4422375;32;20054;-59
2021/06/06 04:34:21;;;;;;;1.02;0.77;;;18.60;99.90;;;;;;4414397;32;20065;-57
2021/06/06 04:36:49;;;;;;;0.90;0.82;;;18.70;99.90;;;;;;4419851;32;20105;-62
2021/06/06 04:39:15;;;;;;;1.42;0.88;;;18.70;99.90;;;;;;4411821;32;20077;-61
2021/06/06 04:41:40;;;;;;;1.50;0.85;;;18.70;99.90;;;;;;4405949;32;20112;-61
2021/06/06 04:44:06;;;;;;;3.60;0.70;;;18.80;99.90;;;;;;4430281;32;20061;-60
2021/06/06 04:46:32;;;;;;;2.17;1.17;;;18.70;99.90;;;;;;4439126;32;20078;-60
2021/06/06 04:48:57;;;;;;;0.85;0.50;;;18.70;99.90;;;;;;4431861;32;20118;-59
2021/06/06 04:51:24;;;;;;;1.05;0.93;;;18.80;99.90;;;;;;4425708;32;20058;-57
2021/06/06 04:53:52;;;;;;;7.45;1.23;;;18.80;99.90;;;;;;4416549;32;20077;-58
2021/06/06 04:56:24;;;;;;;1.65;1.05;;;19.00;99.90;;;;;;4445861;32;20064;-60
2021/06/06 04:58:50;;;;;;;2.12;1.25;;;19.10;99.90;;;;;;4431331;32;20131;-61
2021/06/06 05:01:16;;;;;;;0.75;0.60;;;19.10;99.90;;;;;;4431079;32;20526;-59
2021/06/06 05:03:41;;;;;;;0.88;0.80;;;19.10;99.90;;;;;;4443814;32;20077;-61
2021/06/06 05:06:07;;;;;;;0.77;0.77;;;19.10;99.90;;;;;;4432018;32;20066;-60
2021/06/06 05:08:32;;;;;;;0.93;0.70;;;19.20;99.90;;;;;;4430788;32;20446;-61
2021/06/06 05:10:58;;;;;;;0.85;0.77;;;19.20;99.90;;;;;;4430598;32;20069;-60
2021/06/06 05:13:24;;;;;;;1.50;0.57;;;19.20;99.90;;;;;;4438310;32;20065;-62
2021/06/06 05:15:52;;;;;;;0.60;0.60;;;19.40;99.90;;;;;;4438879;32;20128;-61
2021/06/06 05:18:18;;;;;;;0.73;0.73;;;19.40;99.90;;;;;;4437918;32;20123;-61
2021/06/06 05:20:47;;;;;;;2.03;0.98;;;19.40;99.90;;;;;;4406544;32;20065;-61
2021/06/06 05:23:13;;;;;;;7.60;0.73;;;19.50;99.90;;;;;;4407968;32;20082;-61
2021/06/06 05:25:40;;;;;;;1.05;0.95;;;19.60;99.90;;;;;;4435845;32;20073;-58
2021/06/06 05:28:09;;;;;;;6.10;1.25;;;19.60;99.90;;;;;;4415946;32;20502;-60
2021/06/06 05:30:37;;;;;;;0.50;0.50;;;19.60;99.90;;;;;;4411443;32;20074;-60
2021/06/06 05:33:03;;;;;;;1.10;0.95;;;19.70;99.90;;;;;;4410886;32;20139;-60
2021/06/06 05:35:31;;;;;;;0.98;0.82;;;19.80;99.90;;;;;;4428368;32;20118;-61
2021/06/06 05:37:57;;;;;;;1.55;1.05;;;19.90;99.90;;;;;;4410351;32;20539;-57
2021/06/06 05:40:25;;;;;;;0.82;0.80;;;19.90;99.90;;;;;;4431659;32;20124;-61
2021/06/06 05:42:51;;;;;;;1.27;0.80;;;20.00;99.90;;;;;;4417475;32;20061;-60
2021/06/06 05:45:20;;;;;;;0.52;0.52;;;20.00;99.90;;;;;;4400737;32;20382;-60
2021/06/06 05:47:46;;;;;;;1.05;0.95;;;20.10;99.90;;;;;;4412832;32;20061;-61
2021/06/06 05:50:14;;;;;;;0.52;0.52;;;20.20;99.90;;;;;;4432886;32;20061;-59
2021/06/06 05:52:40;;;;;;;0.65;0.65;;;20.30;99.90;;;;;;4418918;32;20078;-60
2021/06/06 05:55:07;;;;;;;1.15;0.77;;;20.30;99.90;;;;;;4428102;32;20065;-60
2021/06/06 05:57:33;;;;;;;0.60;0.60;;;20.40;99.90;;;;;;4432472;32;20088;-61
2021/06/06 05:59:59;;;;;;;1.95;0.88;;;20.40;99.90;;;;;;4432783;32;20057;-60
2021/06/06 06:02:24;;;;;;;1.45;0.90;;;20.50;99.90;;;;;;4432894;32;20132;-61
2021/06/06 06:04:50;;;;;;;0.70;0.70;;;20.60;99.90;;;;;;4441583;32;20494;-60
2021/06/06 06:07:16;;;;;;;1.48;0.80;;;20.70;99.90;;;;;;4418236;32;20070;-60
2021/06/06 06:09:42;;;;;;;3.55;1.00;;;20.80;99.90;;;;;;4433959;32;20069;-61
2021/06/06 06:12:08;;;;;;;0.90;0.85;;;20.90;99.90;;;;;;4435210;32;20069;-60
2021/06/06 06:14:33;;;;;;;2.90;0.73;;;21.00;99.90;;;;;;4431047;32;20062;-61
2021/06/06 06:16:59;;;;;;;1.30;0.95;;;21.10;99.90;;;;;;4439840;32;20061;-60
2021/06/06 06:19:25;;;;;;;4.40;0.73;;;21.20;99.90;;;;;;4437479;32;20062;-57
2021/06/06 06:21:50;;;;;;;1.60;1.25;;;21.20;99.90;;;;;;4423467;32;20062;-60
2021/06/06 06:24:16;;;;;;;1.15;0.80;;;21.20;99.90;;;;;;4445275;32;20404;-60
2021/06/06 06:26:41;;;;;;;2.22;0.85;;;21.20;99.90;;;;;;4432750;32;20065;-61
2021/06/06 06:29:09;;;;;;;0.90;0.62;;;21.30;99.90;;;;;;4417680;32;20562;-61
2021/06/06 06:31:35;;;;;;;0.55;0.55;;;21.40;99.90;;;;;;4409679;32;20458;-60
2021/06/06 06:34:01;;;;;;;0.93;0.70;;;21.50;99.90;;;;;;4403664;32;20062;-61
2021/06/06 06:36:27;;;;;;;1.92;0.75;;;21.70;99.90;;;;;;4405543;32;20066;-61
2021/06/06 06:38:53;;;;;;;2.70;1.10;;;21.80;99.90;;;;;;4419289;32;20081;-60
2021/06/06 06:41:21;;;;;;;2.90;1.10;;;21.70;99.90;;;;;;4418688;32;20073;-61
2021/06/06 06:43:46;;;;;;;0.80;0.50;;;21.80;99.90;;;;;;4441843;32;20062;-61
2021/06/06 06:46:12;;;;;;;0.82;0.80;;;21.80;99.90;;;;;;4411625;32;20555;-61
2021/06/06 06:48:39;;;;;;;1.17;1.05;;;21.80;99.90;;;;;;4431775;32;20077;-61
2021/06/06 06:51:05;;;;;;;0.60;0.60;;;21.90;99.90;;;;;;4416574;32;20058;-62
2021/06/06 06:53:31;;;;;;;0.60;0.60;;;22.00;99.90;;;;;;4416595;32;20062;-61
2021/06/06 06:55:56;;;;;;;0.70;0.70;;;22.10;99.90;;;;;;4445279;32;20076;-59
2021/06/06 06:58:22;;;;;;;0.50;0.50;;;22.10;99.90;;;;;;4446478;32;20069;-61
2021/06/06 07:00:50;;;;;;;0.77;0.77;;;22.10;99.90;;;;;;4446828;32;20069;-57
2021/06/06 07:03:20;;;;;;;1.67;1.25;;;22.10;99.90;;;;;;4430770;32;20065;-60
2021/06/06 07:05:45;;;;;;;0.68;0.60;;;22.10;99.90;;;;;;4418175;32;20138;-61
2021/06/06 07:08:13;;;;;;;1.20;0.70;;;22.00;99.90;;;;;;4416628;32;20066;-61
2021/06/06 07:10:41;;;;;;;0.32;0.32;;;21.90;99.90;;;;;;4433261;32;20112;-61
2021/06/06 07:13:08;;;;;;;0.40;0.40;;;22.00;99.90;;;;;;4410270;32;20564;-61
2021/06/06 07:15:34;;;;;;;1.83;0.93;;;21.90;99.90;;;;;;4406280;32;20119;-61
2021/06/06 07:18:00;;;;;;;3.58;1.42;;;21.90;99.90;;;;;;4408863;32;20187;-60
2021/06/06 07:20:29;;;;;;;2.83;1.40;;;22.00;99.90;;;;;;4420323;32;20108;-60
2021/06/06 07:22:56;;;;;;;0.80;0.70;;;22.00;99.90;;;;;;4439796;32;20076;-59
2021/06/06 07:25:22;;;;;;;2.33;0.80;;;22.00;99.90;;;;;;4409348;32;20070;-61
2021/06/06 07:27:50;;;;;;;0.95;0.70;;;22.00;99.90;;;;;;4402719;32;20113;-61
2021/06/06 07:30:22;;;;;;;0.95;0.68;;;22.10;99.90;;;;;;4404162;32;20078;-61
2021/06/06 07:32:48;;;;;;;0.52;0.52;;;22.20;99.90;;;;;;4414081;32;20069;-61
2021/06/06 07:35:15;;;;;;;2.30;0.90;;;22.40;99.90;;;;;;4428789;32;20117;-60
2021/06/06 07:37:41;;;;;;;1.75;0.70;;;22.60;99.90;;;;;;4425889;32;20427;-61
2021/06/06 07:40:09;;;;;;;1.45;0.93;;;22.70;99.90;;;;;;4403186;32;20077;-62
2021/06/06 07:42:36;;;;;;;0.75;0.68;;;22.90;99.90;;;;;;4415943;32;20078;-61
2021/06/06 07:45:04;;;;;;;0.50;0.50;;;22.90;99.90;;;;;;4426397;32;20081;-61
2021/06/06 07:47:30;;;;;;;1.52;1.00;;;22.80;99.90;;;;;;4409338;32;20108;-61
2021/06/06 07:49:56;;;;;;;0.60;0.60;;;22.70;99.90;;;;;;4430334;32;20522;-61
2021/06/06 07:52:22;;;;;;;1.92;0.73;;;22.80;99.90;;;;;;4420228;32;20519;-61
2021/06/06 07:54:47;;;;;;;0.88;0.55;;;23.00;99.90;;;;;;4410081;32;20064;-60
2021/06/06 07:57:13;;;;;;;0.77;0.50;;;23.10;99.90;;;;;;4403722;32;20127;-61
2021/06/06 07:59:38;;;;;;;0.60;0.60;;;23.30;99.90;;;;;;4429604;32;20065;-61
2021/06/06 08:02:04;;;;;;;0.30;0.30;;;23.40;99.90;;;;;;4430065;32;20306;-61
2021/06/06 08:04:31;;;;;;;0.68;0.45;;;23.80;99.90;;;;;;4426661;32;20459;-60
2021/06/06 08:06:56;;;;;;;0.40;0.40;;;24.10;99.90;;;;;;4414735;32;20073;-61
2021/06/06 08:09:22;;;;;;;0.80;0.80;;;24.10;99.40;;;;;;4416663;32;20486;-62
2021/06/06 08:11:48;;;;;;;0.30;0.30;;;24.20;99.10;;;;;;4402502;32;20058;-61
2021/06/06 08:14:13;;;;;;;0.50;0.50;;;24.20;99.10;;;;;;4426670;32;20471;-62
2021/06/06 08:16:39;;;;;;;0.85;0.65;;;24.40;99.20;;;;;;4422775;32;20061;-59
2021/06/06 08:19:05;;;;;;;0.25;0.25;;;24.50;98.50;;;;;;4430377;32;20065;-62
2021/06/06 08:21:37;;;;;;;1.62;0.57;;;24.70;98.00;;;;;;4408723;32;20058;-61
2021/06/06 08:24:05;;;;;;;0.70;0.70;;;25.00;98.00;;;;;;4411245;32;20053;-61
2021/06/06 08:26:31;;;;;;;0.40;0.40;;;24.90;96.80;;;;;;4410411;32;20066;-61
2021/06/06 08:28:57;;;;;;;7.03;0.77;;;24.90;96.70;;;;;;4414124;32;20405;-61
2021/06/06 08:31:27;;;;;;;1.17;0.60;;;25.10;97.00;;;;;;4412422;32;20508;-58
2021/06/06 08:33:53;;;;;;;0.20;0.20;;;25.20;95.70;;;;;;4414461;32;20112;-58
2021/06/06 08:36:23;;;;;;;0.25;0.25;;;25.20;93.80;;;;;;4405053;32;20058;-61
2021/06/06 08:38:49;;;;;;;1.52;0.70;;;25.30;94.10;;;;;;4428633;32;20069;-59
2021/06/06 08:41:27;;;;;;;0.73;0.62;;;25.20;94.20;;;;;;4411955;32;20072;-61
2021/06/06 08:44:14;;;;;;;1.27;0.68;;;25.40;94.00;;;;;;4434419;32;20394;-63
2021/06/06 08:47:08;;;;;;;1.45;1.12;;;25.60;94.60;;;;;;4411272;32;20077;-59
2021/06/06 08:49:41;;;;;;;2.70;1.05;;;25.80;93.80;;;;;;4393600;32;20479;-59
2021/06/06 08:52:41;;;;;;;0.50;0.50;;;26.00;93.80;;;;;;4403569;32;20062;-60
2021/06/06 08:55:28;;;;;;;0.45;0.40;;;26.10;93.20;;;;;;4413967;32;20069;-60
2021/06/06 08:58:09;;;;;;;1.20;0.77;;;26.20;92.50;;;;;;4414027;32;20057;-60
2021/06/06 09:00:36;;;;;;;;;;;26.10;91.30;;;;;;4408865;32;20132;-60
2021/06/06 09:03:08;;;;;;;0.50;0.50;;;26.30;86.80;;;;;;4400400;32;20347;-61
2021/06/06 09:05:39;;;;;;;0.28;0.28;;;26.40;83.70;;;;;;4401943;32;20050;-60
2021/06/06 09:08:10;;;;;;;0.20;0.20;;;26.40;80.90;;;;;;4414829;32;20819;-60
2021/06/06 09:10:41;;;;;;;0.32;0.32;;;26.40;78.40;;;;;;4419779;32;20120;-61
2021/06/06 09:13:09;;;;;;;0.30;0.28;;;26.60;75.90;;;;;;4409036;32;20384;-60
2021/06/06 09:15:35;;;;;;;0.28;0.28;;;26.80;75.50;;;;;;4399264;32;20111;-60
2021/06/06 09:18:16;;;;;;;0.32;0.32;;;27.00;75.90;;;;;;4399076;32;20408;-57
2021/06/06 09:20:44;;;;;;;0.30;0.30;;;27.00;73.40;;;;;;4401778;32;20074;-61
2021/06/06 09:23:17;;;;;;;0.20;0.20;;;27.10;70.90;;;;;;4404501;32;20629;-58
2021/06/06 09:25:45;;;;;;;0.30;0.30;;;27.30;70.20;;;;;;4407952;32;20086;-60
2021/06/06 09:28:18;;;;;;;0.95;0.45;;;27.50;70.90;;;;;;4389869;32;20070;-60
2021/06/06 09:30:43;;;;;;;0.45;0.28;;;27.50;71.30;;;;;;4402185;32;20073;-60
2021/06/06 09:33:20;;;;;;;0.30;0.30;;;27.60;69.00;;;;;;4440862;32;20060;-59
2021/06/06 09:35:54;;;;;;;0.28;0.28;;;27.70;65.90;;;;;;4419325;32;20109;-61
2021/06/06 09:38:33;;;;;;;0.20;0.20;;;27.80;66.30;;;;;;4425734;32;20097;-61
2021/06/06 09:41:38;;;;;;;0.35;0.32;;;27.90;63.00;;;;;;4402593;32;73900;-61
2021/06/06 09:44:14;;;;;;;0.20;0.20;;;27.80;66.30;;;;;;4414776;32;20146;-59
2021/06/06 09:46:46;;;;;;;0.25;0.25;;;27.60;67.00;;;;;;4447303;32;20205;-62
2021/06/06 09:49:23;;;;;;;0.40;0.40;;;27.30;69.90;;;;;;4433695;32;20147;-62
2021/06/06 09:51:49;;;;;;;1.62;0.77;;;27.40;69.20;;;;;;4415302;32;20125;-61
2021/06/06 09:54:24;;;;;;;0.20;0.20;;;27.40;70.30;;;;;;4404316;32;20132;-60
2021/06/06 09:56:54;;;;;;;0.43;0.43;;;27.60;69.60;;;;;;4416003;32;20133;-60
2021/06/06 09:59:31;;;;;;;0.20;0.20;;;27.80;69.30;;;;;;4403058;32;20061;-59
2021/06/06 10:02:00;;;;;;;0.43;0.43;;;27.70;70.00;;;;;;4416688;32;20248;-61
2021/06/06 10:04:31;;;;;;;0.25;0.20;;;27.40;68.60;;;;;;4419512;32;20061;-61
2021/06/06 10:07:11;;;;;;;0.55;0.30;;;27.20;70.50;;;;;;4425965;32;20136;-60
2021/06/06 10:09:40;;;;;;;0.20;0.20;;;27.20;70.70;;;;;;4417978;32;20054;-59
2021/06/06 10:12:10;;;;;;;0.30;0.30;;;26.80;63.90;;;;;;4403546;32;20081;-62
2021/06/06 10:14:50;;;;;;;0.28;0.20;;;26.80;66.80;;;;;;4442311;32;20056;-61
2021/06/06 10:17:21;;;;;;;0.13;0.13;;;27.00;65.00;;;;;;4408878;32;20439;-61
2021/06/06 10:19:54;;;;;;;1.77;0.65;;;27.30;66.90;;;;;;4411955;32;20146;-60
2021/06/06 10:22:26;;;;;;;0.40;0.35;;;27.60;65.10;;;;;;4412247;32;20073;-60
2021/06/06 10:24:57;;;;;;;0.20;0.20;;;28.10;62.70;;;;;;4421920;32;20148;-61
2021/06/06 10:27:32;;;;;;;0.20;0.20;;;28.50;62.70;;;;;;4418429;32;20057;-61
2021/06/06 10:30:04;;;;;;;0.70;0.52;;;28.90;59.50;;;;;;4417620;32;20057;-61
2021/06/06 10:32:34;;;;;;;0.65;0.35;;;29.20;58.50;;;;;;4410516;32;20074;-59
2021/06/06 10:35:07;;;;;;;0.30;0.30;;;29.20;57.30;;;;;;4402843;32;20416;-58
2021/06/06 10:37:33;;;;;;;0.35;0.30;;;29.20;56.80;;;;;;4418088;32;20082;-60
2021/06/06 10:40:06;;;;;;;0.40;0.40;;;29.30;59.00;;;;;;4404813;32;20073;-61
2021/06/06 10:42:39;;;;;;;0.22;0.22;;;29.30;59.10;;;;;;4412510;32;20065;-60
2021/06/06 10:45:15;;;;;;;0.40;0.40;;;28.70;59.10;;;;;;4405179;32;20073;-60
2021/06/06 10:48:01;;;;;;;1.15;0.30;;;28.50;59.40;;;;;;4421917;32;20424;-60
2021/06/06 10:50:38;;;;;;;2.17;0.95;;;28.20;61.20;;;;;;4446423;32;20057;-60
2021/06/06 10:53:10;;;;;;;0.32;0.32;;;28.00;61.50;;;;;;4405362;32;20065;-61
2021/06/06 10:55:51;;;;;;;0.52;0.52;;;27.70;59.70;;;;;;4405304;32;20076;-61
2021/06/06 10:58:26;;;;;;;0.20;0.20;;;27.50;59.90;;;;;;4389493;32;20070;-60
2021/06/06 11:01:05;;;;;;;0.43;0.37;;;27.50;58.70;;;;;;4402752;32;20109;-61
2021/06/06 11:03:35;;;;;;;0.30;0.30;;;28.10;57.30;;;;;;4402246;32;20420;-60
2021/06/06 11:06:04;;;;;;;0.55;0.47;;;28.90;60.40;;;;;;4402465;32;20061;-60
2021/06/06 11:08:33;;;;;;;0.52;0.52;;;29.40;56.90;;;;;;4430627;32;20112;-60
2021/06/06 11:11:20;;;;;;;0.30;0.30;;;29.80;56.50;;;;;;4428000;32;20057;-62
2021/06/06 11:13:50;;;;;;;0.20;0.20;;;30.20;58.70;;;;;;4408102;32;20053;-62
2021/06/06 11:16:19;;;;;;;0.25;0.25;;;30.40;55.20;;;;;;4410990;32;20084;-60
2021/06/06 11:18:50;;;;;;;0.32;0.20;;;30.40;55.40;;;;;;4425368;32;20392;-60
2021/06/06 11:21:28;;;;;;;1.65;0.28;;;30.40;54.50;;;;;;4407903;32;20136;-60
2021/06/06 11:23:58;;;;;;;0.28;0.28;;;29.80;54.00;;;;;;4398727;32;20062;-60
2021/06/06 11:26:31;;;;;;;0.10;0.10;;;29.30;54.40;;;;;;4413189;32;20082;-60
2021/06/06 11:29:19;;;;;;;0.28;0.28;;;28.90;54.90;;;;;;4426415;32;20050;-60
2021/06/06 11:32:21;;;;;;;1.20;0.65;;;28.60;55.30;;;;;;4408289;32;20058;-61
2021/06/06 11:34:50;;;;;;;0.30;0.30;;;28.50;55.80;;;;;;4415268;32;20053;-60
2021/06/06 11:37:35;;;;;;;0.65;0.60;;;28.20;57.50;;;;;;4424337;32;20475;-60
2021/06/06 11:40:08;;;;;;;1.05;0.50;;;28.30;58.90;;;;;;4416830;32;20061;-60
2021/06/06 11:42:38;;;;;;;1.10;0.80;;;28.60;58.00;;;;;;4425852;32;20077;-60
2021/06/06 11:45:08;;;;;;;0.17;0.17;;;28.70;58.20;;;;;;4416698;32;20417;-60
2021/06/06 11:47:44;;;;;;;1.00;0.30;;;29.10;57.20;;;;;;4415994;32;20073;-60
2021/06/06 11:50:35;;;;;;;0.13;0.13;;;29.90;54.60;;;;;;4402254;32;20435;-61
2021/06/06 11:53:09;;;;;;;0.15;0.15;;;30.40;54.00;;;;;;4405087;32;20154;-60
2021/06/06 11:55:41;;;;;;;0.40;0.40;;;30.80;52.90;;;;;;4400447;32;20069;-61
2021/06/06 11:58:11;;;;;;;0.15;0.15;;;31.40;53.80;;;;;;4403687;32;20411;-61
2021/06/06 12:00:48;;;;;;;4.28;1.48;;;32.10;51.00;;;;;;4416701;32;20070;-61
2021/06/06 12:03:27;;;;;;;0.20;0.20;;;32.50;50.70;;;;;;4417361;32;20435;-61
2021/06/06 12:05:57;;;;;;;1.08;0.40;;;32.40;49.20;;;;;;4413158;32;20064;-61
2021/06/06 12:08:45;;;;;;;0.10;0.05;;;32.40;51.40;;;;;;4402249;32;20061;-61
2021/06/06 12:11:21;;;;;;;0.40;0.40;;;33.00;49.30;;;;;;4404973;32;20506;-60
2021/06/06 12:13:50;;;;;;;0.00;0.00;;;33.30;49.70;;;;;;4425731;32;20060;-61
2021/06/06 12:16:21;;;;;;;0.37;0.32;;;33.40;48.90;;;;;;4408118;32;20127;-61
2021/06/06 12:19:08;;;;;;;0.20;0.20;;;33.90;47.50;;;;;;4424275;32;20169;-61
2021/06/06 12:21:38;;;;;;;0.20;0.20;;;33.90;48.00;;;;;;4413702;32;20128;-60
2021/06/06 12:24:10;;;;;;;0.20;0.20;;;33.90;49.40;;;;;;4410495;32;20124;-60
2021/06/06 12:26:42;;;;;;;0.20;0.20;;;34.30;47.80;;;;;;4424468;32;20112;-61
2021/06/06 12:29:08;;;;;;;0.22;0.20;;;34.40;47.00;;;;;;4386109;32;20077;-61
2021/06/06 12:31:40;;;;;;;0.43;0.22;;;34.80;47.00;;;;;;4422998;32;20055;-61
2021/06/06 12:34:28;;;;;;;0.10;0.10;;;35.30;45.30;;;;;;4399654;32;20085;-61
2021/06/06 12:36:58;;;;;;;3.65;1.08;;;35.40;45.00;;;;;;4419801;32;20523;-60
2021/06/06 12:39:24;;;;;;;0.40;0.40;;;35.40;45.30;;;;;;4409036;32;20465;-61
2021/06/06 12:41:52;;;;;;;0.30;0.30;;;35.20;44.30;;;;;;4404216;32;20058;-61
2021/06/06 12:44:23;;;;;;;1.08;0.30;;;34.10;46.40;;;;;;4406269;32;20401;-61
2021/06/06 12:46:55;;;;;;;0.50;0.40;;;33.60;46.10;;;;;;4423350;32;20428;-59
2021/06/06 12:49:34;;;;;;;0.25;0.25;;;33.80;46.90;;;;;;4402643;32;20053;-61
2021/06/06 12:52:13;;;;;;;0.57;0.40;;;33.90;45.20;;;;;;4410945;32;20153;-61
2021/06/06 12:54:39;;;;;;;0.25;0.25;;;33.40;46.30;;;;;;4418493;32;20065;-61
2021/06/06 12:57:13;;;;;;;0.30;0.20;;;33.60;46.40;;;;;;4411880;32;20065;-61
2021/06/06 12:59:40;;;;;;;8.68;0.90;;;33.90;45.30;;;;;;4414553;32;20068;-61
2021/06/06 13:02:23;;;;;;;0.20;0.20;;;34.20;46.80;;;;;;4422170;32;20580;-61
2021/06/06 13:05:11;;;;;;;0.15;0.15;;;34.60;45.40;;;;;;4406075;32;20118;-61